Time;durP1;ratioP1;P1;durP2;ratioP2;P2;SDS_P1;SDS_P2;PMS_P1;PMS_P2;Temp;Humidity;BMP_temperature;BMP_pressure;BME280_temperature;BME280_humidity;BME280_pressure;Samples;Min_cycle;Max_cycle;Signal;HPM_P1;HPM_P2
2022/01/28 04:00:32;;;;;;;3.50;1.47;;;4.40;81.90;;;;;;6063105;23;20443;-78
2022/01/28 04:03:06;;;;;;;2.77;1.40;;;4.40;81.90;;;;;;4975532;28;20461;-78
2022/01/28 04:11:28;;;;;;;2.90;1.40;;;4.50;82.10;;;;;;4976112;28;20449;-78
2022/01/28 04:13:56;;;;;;;2.40;1.20;;;4.50;81.70;;;;;;5008479;23;20500;-72
2022/01/28 04:17:18;;;;;;;2.50;1.30;;;4.20;82.20;;;;;;4994536;28;20484;-72
2022/01/28 04:19:19;;;;;;;2.70;1.50;;;4.20;83.20;;;;;;4994105;28;20445;-73
2022/01/28 04:21:46;;;;;;;2.40;1.33;;;4.20;83.30;;;;;;4994508;28;20460;-72
2022/01/28 04:24:13;;;;;;;2.87;1.47;;;4.10;83.30;;;;;;4994410;28;20532;-73
2022/01/28 04:26:40;;;;;;;2.90;1.50;;;4.20;83.70;;;;;;4994168;28;20880;-72
2022/01/28 04:29:08;;;;;;;2.70;1.40;;;4.20;83.40;;;;;;4994352;28;20476;-72
2022/01/28 04:31:39;;;;;;;3.10;1.87;;;4.30;83.80;;;;;;4994397;28;20453;-72
2022/01/28 04:34:06;;;;;;;2.90;1.50;;;4.30;83.20;;;;;;4994558;28;20473;-73
2022/01/28 04:36:37;;;;;;;3.57;1.40;;;4.30;83.20;;;;;;4994257;28;20516;-73
2022/01/28 04:39:11;;;;;;;2.50;1.30;;;4.40;82.90;;;;;;4994271;28;20437;-72
2022/01/28 04:41:49;;;;;;;2.60;1.50;;;4.40;82.60;;;;;;4994477;28;20437;-73
2022/01/28 04:44:22;;;;;;;2.50;1.37;;;4.40;83.00;;;;;;4994177;28;20476;-72
2022/01/28 04:46:58;;;;;;;3.83;1.80;;;4.40;82.80;;;;;;4994370;28;20433;-72
2022/01/28 04:49:36;;;;;;;2.60;1.40;;;4.40;83.00;;;;;;4994157;28;20441;-72
2022/01/28 04:52:30;;;;;;;3.00;1.73;;;4.40;82.60;;;;;;4994144;28;20441;-72
2022/01/28 04:55:06;;;;;;;2.90;1.50;;;4.30;83.00;;;;;;4993619;28;20481;-72
2022/01/28 04:57:41;;;;;;;2.80;1.50;;;4.40;83.00;;;;;;4994017;28;20465;-73
2022/01/28 05:00:18;;;;;;;3.20;1.63;;;4.30;82.70;;;;;;4993992;28;20433;-72
2022/01/28 05:03:03;;;;;;;2.90;1.73;;;4.30;83.00;;;;;;4993950;28;20495;-72
2022/01/28 05:06:02;;;;;;;2.90;1.40;;;4.40;82.50;;;;;;4993933;28;20453;-72
2022/01/28 05:11:34;;;;;;;2.50;1.40;;;4.40;82.30;;;;;;4990970;28;20953;-72
2022/01/28 05:14:28;;;;;;;2.50;1.20;;;4.40;82.30;;;;;;4993643;28;20481;-72
2022/01/28 05:27:54;;;;;;;2.57;1.47;;;4.10;83.10;;;;;;4993550;28;20494;-72
2022/01/28 05:30:21;;;;;;;2.70;1.50;;;4.00;83.20;;;;;;4993748;28;20483;-72
2022/01/28 05:32:48;;;;;;;2.40;1.23;;;3.90;83.40;;;;;;4993675;28;20500;-72
2022/01/28 05:35:16;;;;;;;2.80;1.47;;;4.00;83.60;;;;;;4993609;28;20496;-73
2022/01/28 05:37:42;;;;;;;2.90;1.37;;;3.90;83.70;;;;;;4993606;28;20551;-73
2022/01/28 05:40:10;;;;;;;3.20;1.70;;;4.00;83.70;;;;;;4993633;28;20453;-73
2022/01/28 05:42:37;;;;;;;2.60;1.37;;;4.00;83.50;;;;;;4994386;28;20448;-72
2022/01/28 05:45:04;;;;;;;2.43;1.20;;;4.00;83.50;;;;;;4993537;28;20469;-72
2022/01/28 05:47:35;;;;;;;2.63;1.70;;;4.00;83.30;;;;;;4993545;28;20445;-73
2022/01/28 05:50:02;;;;;;;3.10;1.53;;;4.00;83.20;;;;;;4993548;28;20805;-72
2022/01/28 05:52:31;;;;;;;2.67;1.30;;;4.10;83.30;;;;;;4993601;28;20449;-73
2022/01/28 05:54:58;;;;;;;2.50;1.57;;;4.10;82.90;;;;;;4993540;28;20477;-73
2022/01/28 05:57:25;;;;;;;3.60;1.80;;;4.10;82.80;;;;;;4994198;28;20999;-73
2022/01/28 05:59:51;;;;;;;2.80;1.40;;;4.10;82.70;;;;;;4997275;28;20515;-73
2022/01/28 06:02:18;;;;;;;3.30;1.60;;;4.10;83.00;;;;;;4997248;28;20500;-72
2022/01/28 06:04:45;;;;;;;2.67;1.50;;;4.20;82.90;;;;;;4997050;28;20552;-72
2022/01/28 06:07:12;;;;;;;2.40;1.20;;;4.10;82.70;;;;;;4997943;28;20981;-72
2022/01/28 06:09:40;;;;;;;2.90;1.67;;;4.00;83.00;;;;;;4996806;28;20819;-72
2022/01/28 06:12:08;;;;;;;2.50;1.30;;;3.90;83.10;;;;;;4996978;28;20503;-72
2022/01/28 06:14:35;;;;;;;2.70;1.70;;;4.00;83.10;;;;;;4996557;28;20901;-72
2022/01/28 06:17:01;;;;;;;2.97;1.83;;;4.10;82.60;;;;;;4997325;28;20889;-72
2022/01/28 06:19:28;;;;;;;2.37;1.13;;;4.20;82.70;;;;;;4996758;28;20511;-72
2022/01/28 06:21:55;;;;;;;3.10;1.30;;;4.20;82.40;;;;;;4996759;28;20453;-72
2022/01/28 06:24:21;;;;;;;2.73;1.70;;;4.30;81.80;;;;;;4996716;28;20473;-72
2022/01/28 06:26:49;;;;;;;2.50;1.27;;;4.40;81.30;;;;;;4996552;28;20437;-72
2022/01/28 06:29:16;;;;;;;2.70;1.40;;;4.30;81.40;;;;;;4996636;28;20445;-72
2022/01/28 06:31:43;;;;;;;3.20;1.37;;;4.10;82.10;;;;;;4996589;28;20453;-73
2022/01/28 06:34:10;;;;;;;2.80;1.70;;;4.00;82.30;;;;;;4996398;28;20476;-73
2022/01/28 06:36:37;;;;;;;2.90;1.60;;;4.00;82.50;;;;;;4996384;28;20532;-72
2022/01/28 06:39:03;;;;;;;3.10;1.70;;;4.00;82.30;;;;;;4996410;28;20452;-72
2022/01/28 06:41:31;;;;;;;3.00;1.47;;;3.90;83.00;;;;;;4996635;28;20448;-72
2022/01/28 06:43:59;;;;;;;2.90;2.03;;;4.00;82.60;;;;;;4996255;28;20557;-72
2022/01/28 06:46:26;;;;;;;3.67;1.90;;;4.10;82.60;;;;;;4996276;28;20503;-72
2022/01/28 06:48:53;;;;;;;3.00;1.70;;;4.20;82.10;;;;;;4996261;28;20453;-72
2022/01/28 06:51:19;;;;;;;2.93;1.60;;;4.00;82.20;;;;;;4996272;28;20448;-72
2022/01/28 06:53:46;;;;;;;2.77;1.77;;;4.10;82.40;;;;;;4995803;28;20999;-72
2022/01/28 06:56:13;;;;;;;2.83;1.63;;;4.10;82.50;;;;;;4996043;28;20500;-72
2022/01/28 06:58:39;;;;;;;3.00;1.97;;;4.20;82.20;;;;;;4996006;28;20480;-72
2022/01/28 07:01:09;;;;;;;3.30;1.70;;;4.20;81.70;;;;;;4995971;28;20456;-72
2022/01/28 07:03:35;;;;;;;2.90;1.50;;;4.20;81.70;;;;;;4995867;28;20524;-72
2022/01/28 07:06:02;;;;;;;3.10;1.93;;;4.10;82.30;;;;;;4995864;28;20448;-72
2022/01/28 07:08:29;;;;;;;3.30;1.70;;;3.90;83.20;;;;;;4995029;28;20449;-72
2022/01/28 07:10:56;;;;;;;2.70;1.63;;;4.10;83.20;;;;;;4995749;28;20820;-72
2022/01/28 07:13:23;;;;;;;2.73;1.50;;;4.00;82.80;;;;;;4995315;28;20988;-72
2022/01/28 07:15:51;;;;;;;2.70;1.70;;;3.80;83.40;;;;;;4995775;28;20803;-72
2022/01/28 07:18:20;;;;;;;3.20;2.17;;;3.70;84.00;;;;;;4995287;28;20991;-72
2022/01/28 07:20:47;;;;;;;2.80;1.90;;;3.70;84.30;;;;;;4995673;28;20975;-72
2022/01/28 07:23:13;;;;;;;3.20;2.00;;;3.80;84.60;;;;;;4995612;28;20501;-74
2022/01/28 07:25:40;;;;;;;3.53;1.50;;;3.80;84.60;;;;;;4995529;28;20480;-72
2022/01/28 07:28:07;;;;;;;2.63;1.60;;;3.90;84.40;;;;;;4995515;28;20453;-72
2022/01/28 07:30:33;;;;;;;2.80;1.90;;;3.90;84.40;;;;;;4995385;28;20437;-72
2022/01/28 07:33:04;;;;;;;4.20;1.77;;;3.90;84.40;;;;;;4995268;28;20445;-72
2022/01/28 07:35:32;;;;;;;2.90;1.83;;;4.00;84.10;;;;;;4995265;28;20444;-72
2022/01/28 07:37:59;;;;;;;3.03;2.33;;;4.00;83.80;;;;;;4995269;28;20873;-72
2022/01/28 07:40:26;;;;;;;3.33;2.07;;;4.10;83.50;;;;;;4994862;28;20937;-72
2022/01/28 07:42:53;;;;;;;3.90;1.90;;;4.00;84.10;;;;;;4995214;28;20450;-72
2022/01/28 07:45:20;;;;;;;3.47;2.30;;;4.20;84.70;;;;;;4995202;28;20507;-73
2022/01/28 07:47:46;;;;;;;2.60;1.50;;;5.00;84.30;;;;;;4995146;28;20445;-72
2022/01/28 07:50:14;;;;;;;2.90;1.30;;;6.40;79.30;;;;;;4994761;28;20457;-72
2022/01/28 07:52:42;;;;;;;2.90;1.53;;;7.40;74.40;;;;;;4995038;28;20540;-73
2022/01/28 07:55:11;;;;;;;2.80;1.50;;;7.80;72.30;;;;;;4994890;28;20465;-75
2022/01/28 07:57:38;;;;;;;2.60;1.30;;;8.30;71.90;;;;;;4994924;28;20485;-72
2022/01/28 08:00:07;;;;;;;2.77;1.53;;;8.80;69.10;;;;;;4994880;28;20453;-75
2022/01/28 08:02:33;;;;;;;2.60;1.33;;;8.90;68.60;;;;;;4994888;28;20449;-74
2022/01/28 08:05:00;;;;;;;2.70;1.57;;;8.70;67.70;;;;;;4994684;28;20461;-74
2022/01/28 08:07:28;;;;;;;2.70;1.60;;;8.10;68.50;;;;;;4994447;28;20449;-73
2022/01/28 08:09:56;;;;;;;2.90;1.53;;;7.20;71.40;;;;;;4994700;28;20445;-73
2022/01/28 08:12:22;;;;;;;4.60;1.90;;;6.90;73.10;;;;;;4995425;28;20449;-73
2022/01/28 08:14:49;;;;;;;2.70;1.57;;;7.80;72.70;;;;;;4994318;28;20569;-72
2022/01/28 08:17:16;;;;;;;2.60;1.33;;;9.50;68.20;;;;;;4994623;28;20493;-71
2022/01/28 08:19:42;;;;;;;2.90;1.43;;;11.10;62.10;;;;;;4994274;28;20445;-72
2022/01/28 08:22:09;;;;;;;2.90;1.80;;;11.70;59.20;;;;;;4994572;28;20645;-71
2022/01/28 08:24:36;;;;;;;2.70;1.63;;;10.80;60.20;;;;;;4994696;28;20469;-72
2022/01/28 08:27:04;;;;;;;2.90;1.40;;;10.10;61.90;;;;;;4994435;28;20445;-71
2022/01/28 08:29:31;;;;;;;3.87;2.23;;;9.60;63.70;;;;;;4994418;28;20453;-71
2022/01/28 08:31:57;;;;;;;3.00;1.90;;;8.50;65.60;;;;;;4994021;28;21004;-71
2022/01/28 08:34:24;;;;;;;2.60;1.40;;;7.80;69.00;;;;;;4993866;28;20996;-71
2022/01/28 08:36:51;;;;;;;2.90;1.90;;;7.90;68.80;;;;;;4993992;28;20957;-71
2022/01/28 08:39:17;;;;;;;2.73;1.50;;;7.80;68.40;;;;;;4993969;28;20860;-71
2022/01/28 08:41:44;;;;;;;2.90;1.80;;;7.50;69.30;;;;;;4993944;28;21076;-71
2022/01/28 08:44:12;;;;;;;2.80;1.50;;;7.10;71.10;;;;;;4993759;28;20840;-71
2022/01/28 08:46:39;;;;;;;2.93;1.50;;;6.90;71.70;;;;;;4993869;28;21011;-72
2022/01/28 08:49:05;;;;;;;3.20;1.60;;;7.00;71.70;;;;;;4994273;28;20491;-72
2022/01/28 08:51:32;;;;;;;2.90;1.77;;;7.00;71.60;;;;;;4994210;28;20448;-71
2022/01/28 08:53:59;;;;;;;2.87;1.60;;;6.80;71.70;;;;;;4994097;28;20469;-71
2022/01/28 08:56:25;;;;;;;2.70;1.50;;;6.70;72.50;;;;;;4994010;28;20441;-72
2022/01/28 08:58:52;;;;;;;2.53;1.40;;;6.30;73.20;;;;;;4993847;28;20485;-73
2022/01/28 09:01:21;;;;;;;2.50;1.37;;;6.20;74.00;;;;;;4994052;28;20481;-72
2022/01/28 09:03:49;;;;;;;2.93;1.70;;;6.30;74.30;;;;;;4993984;28;20897;-72
2022/01/28 09:06:16;;;;;;;2.73;1.40;;;6.20;74.40;;;;;;4993727;28;20929;-71
2022/01/28 09:08:44;;;;;;;2.80;1.57;;;6.10;74.50;;;;;;4994051;28;20444;-71
2022/01/28 09:13:52;;;;;;;2.60;1.43;;;5.90;75.50;;;;;;4993267;28;20467;-71
2022/01/28 09:16:21;;;;;;;2.70;1.47;;;6.00;75.40;;;;;;4993970;28;20449;-71
2022/01/28 09:18:48;;;;;;;3.33;1.50;;;6.10;75.20;;;;;;4993941;28;20487;-71
2022/01/28 09:21:15;;;;;;;2.30;1.37;;;5.90;75.30;;;;;;4993939;28;20508;-71
2022/01/28 09:23:42;;;;;;;2.90;1.90;;;5.80;76.00;;;;;;4993554;28;20893;-71
2022/01/28 09:26:09;;;;;;;3.00;1.53;;;5.90;76.20;;;;;;4993848;28;20537;-71
2022/01/28 09:28:35;;;;;;;2.50;1.30;;;6.00;75.80;;;;;;4993633;28;20941;-71
2022/01/28 09:31:02;;;;;;;3.00;1.90;;;6.00;74.70;;;;;;4993571;28;20941;-72
2022/01/28 09:33:30;;;;;;;2.70;1.50;;;6.00;75.20;;;;;;4996422;28;20874;-71
2022/01/28 09:35:57;;;;;;;2.50;1.20;;;6.00;75.60;;;;;;4997786;28;20500;-72
2022/01/28 09:38:23;;;;;;;4.17;1.57;;;6.20;75.60;;;;;;4997991;28;20551;-72
2022/01/28 09:40:51;;;;;;;2.87;1.43;;;6.30;75.20;;;;;;4997735;28;20449;-71
2022/01/28 09:43:18;;;;;;;2.80;1.47;;;6.30;75.10;;;;;;4997583;28;20524;-71
2022/01/28 09:45:47;;;;;;;2.70;1.60;;;6.40;75.30;;;;;;4997531;28;20515;-71
2022/01/28 09:48:14;;;;;;;2.37;1.20;;;6.00;75.00;;;;;;4997561;28;20445;-71
2022/01/28 09:50:44;;;;;;;2.83;1.57;;;6.00;75.20;;;;;;4997586;28;20445;-71
2022/01/28 09:53:11;;;;;;;3.20;1.53;;;6.00;75.30;;;;;;4997619;28;20453;-71
2022/01/28 09:55:37;;;;;;;2.77;1.67;;;6.00;76.60;;;;;;4997396;28;20456;-71
2022/01/28 09:58:04;;;;;;;2.60;1.40;;;6.10;75.40;;;;;;4997228;28;20484;-71
2022/01/28 10:00:32;;;;;;;2.47;1.40;;;6.20;75.80;;;;;;4997246;28;20503;-70
2022/01/28 10:03:00;;;;;;;2.67;1.33;;;6.30;75.00;;;;;;4997160;28;20859;-71
2022/01/28 10:05:28;;;;;;;3.10;1.50;;;6.40;74.80;;;;;;4997118;28;20453;-71
2022/01/28 10:08:12;;;;;;;2.50;1.30;;;6.60;74.90;;;;;;4996890;28;20952;-71
2022/01/28 10:10:52;;;;;;;2.50;1.00;;;6.60;73.20;;;;;;4997124;28;20432;-71
2022/01/28 10:15:55;;;;;;;4.07;1.50;;;6.80;73.00;;;;;;5019801;23;20480;-79
2022/01/28 10:18:23;;;;;;;2.40;1.10;;;7.00;72.50;;;;;;5001839;28;20485;-80
2022/01/28 10:20:49;;;;;;;3.13;1.30;;;7.10;71.90;;;;;;4999506;28;20446;-80
2022/01/28 10:23:19;;;;;;;2.60;1.10;;;7.20;71.00;;;;;;5000113;28;20449;-79
2022/01/28 10:25:55;;;;;;;2.87;1.20;;;7.10;70.80;;;;;;5001350;28;20481;-80
2022/01/28 10:28:22;;;;;;;3.13;1.10;;;7.10;70.70;;;;;;5000660;28;20520;-79
2022/01/28 10:30:49;;;;;;;2.90;1.40;;;7.30;71.30;;;;;;4999551;28;20460;-81
2022/01/28 10:33:17;;;;;;;2.50;1.20;;;7.20;70.60;;;;;;5003089;28;20499;-80
2022/01/28 10:35:51;;;;;;;2.40;1.00;;;7.10;70.80;;;;;;5002341;28;20465;-81
2022/01/28 10:38:33;;;;;;;2.70;1.00;;;7.10;70.70;;;;;;5001102;28;20488;-81
2022/01/28 10:41:11;;;;;;;2.53;1.10;;;7.20;70.80;;;;;;4996719;28;20449;-78
2022/01/28 10:43:46;;;;;;;2.43;1.00;;;7.20;70.00;;;;;;4996740;28;20572;-78
2022/01/28 10:46:12;;;;;;;2.80;1.10;;;7.40;70.10;;;;;;4997288;28;20540;-78
2022/01/28 10:48:53;;;;;;;2.60;1.20;;;7.40;69.30;;;;;;4997758;28;20584;-78
2022/01/28 10:51:21;;;;;;;2.50;1.03;;;7.50;69.10;;;;;;4997698;28;20458;-78
2022/01/28 10:54:06;;;;;;;2.50;1.13;;;7.60;68.30;;;;;;4997007;28;20465;-79
2022/01/28 10:56:49;;;;;;;2.77;1.43;;;7.60;69.00;;;;;;4996700;28;20433;-79
2022/01/28 10:59:18;;;;;;;2.63;1.00;;;7.70;67.80;;;;;;4996531;28;20476;-78
2022/01/28 11:01:45;;;;;;;3.00;1.00;;;7.80;66.80;;;;;;4996165;28;20511;-78
2022/01/28 11:04:14;;;;;;;2.67;0.90;;;7.80;67.90;;;;;;4996126;28;20477;-78
2022/01/28 11:06:42;;;;;;;2.90;1.20;;;7.80;67.60;;;;;;4996088;28;20449;-78
2022/01/28 11:09:11;;;;;;;3.00;1.00;;;8.00;67.30;;;;;;4996154;28;20448;-78
2022/01/28 11:11:39;;;;;;;2.27;0.83;;;8.10;66.40;;;;;;4996155;28;20445;-78
2022/01/28 11:14:06;;;;;;;2.43;0.90;;;8.10;64.80;;;;;;4995768;28;20512;-79
2022/01/28 11:16:34;;;;;;;4.43;1.13;;;8.00;64.10;;;;;;4996118;28;20434;-78
2022/01/28 11:19:01;;;;;;;2.60;1.20;;;8.00;65.90;;;;;;4995934;28;20902;-78
2022/01/28 11:21:35;;;;;;;2.30;1.00;;;8.00;65.50;;;;;;4995901;28;20457;-79
2022/01/28 11:24:09;;;;;;;2.60;1.00;;;8.10;66.00;;;;;;4995874;28;20480;-78
2022/01/28 11:26:50;;;;;;;2.90;1.33;;;8.00;64.70;;;;;;4995960;28;20441;-78
2022/01/28 11:29:20;;;;;;;2.73;0.90;;;7.80;65.30;;;;;;4996169;28;20476;-79
2022/01/28 11:31:48;;;;;;;2.50;0.90;;;7.90;65.90;;;;;;4996144;28;20453;-78
2022/01/28 11:34:18;;;;;;;2.80;1.10;;;8.00;65.20;;;;;;4995791;28;20532;-79
2022/01/28 11:36:45;;;;;;;2.37;0.87;;;8.20;65.70;;;;;;4995571;28;20453;-78
2022/01/28 11:39:33;;;;;;;2.67;1.00;;;8.30;64.10;;;;;;4995633;28;20485;-78
2022/01/28 11:42:04;;;;;;;2.50;1.03;;;8.40;64.50;;;;;;4995411;28;20828;-79
2022/01/28 11:44:42;;;;;;;3.07;1.20;;;8.20;62.40;;;;;;4995525;28;20473;-78
2022/01/28 11:47:11;;;;;;;2.30;1.00;;;8.20;63.90;;;;;;4995568;28;20460;-77
2022/01/28 11:49:56;;;;;;;2.63;0.93;;;8.10;63.70;;;;;;4995738;28;20821;-78
2022/01/28 11:52:29;;;;;;;2.40;1.00;;;8.10;63.80;;;;;;4995456;28;20496;-78
2022/01/28 11:54:56;;;;;;;2.40;0.90;;;8.20;63.80;;;;;;4994401;28;20473;-78
2022/01/28 11:57:27;;;;;;;2.57;0.90;;;8.10;63.90;;;;;;4995499;28;20453;-78
2022/01/28 12:00:22;;;;;;;2.20;0.70;;;8.00;63.00;;;;;;4995757;28;20484;-79
2022/01/28 12:02:50;;;;;;;2.50;0.97;;;7.80;63.70;;;;;;4995884;28;20468;-79
2022/01/28 12:05:42;;;;;;;2.50;1.10;;;7.80;64.10;;;;;;5001009;28;20469;-79
2022/01/28 12:08:11;;;;;;;5.20;1.30;;;7.80;63.50;;;;;;5001884;28;20525;-79
2022/01/28 12:10:42;;;;;;;3.50;1.03;;;7.60;64.80;;;;;;5001197;28;20455;-78
2022/01/28 12:13:14;;;;;;;2.23;0.80;;;7.50;64.80;;;;;;5000370;28;20433;-78
2022/01/28 12:16:03;;;;;;;2.20;0.80;;;7.50;65.00;;;;;;4998161;28;21011;-75
2022/01/28 12:18:49;;;;;;;2.20;0.80;;;7.50;65.60;;;;;;4996399;28;20479;-76
2022/01/28 12:21:18;;;;;;;2.73;1.33;;;7.50;66.20;;;;;;4996219;28;20417;-76
2022/01/28 12:23:46;;;;;;;2.80;0.80;;;7.70;66.40;;;;;;4996273;28;20457;-76
2022/01/28 12:26:17;;;;;;;4.07;1.30;;;8.10;65.40;;;;;;4996030;28;20499;-76
2022/01/28 12:28:55;;;;;;;2.70;0.93;;;9.10;62.60;;;;;;4998169;28;20524;-76
2022/01/28 12:31:29;;;;;;;2.40;0.93;;;9.80;59.60;;;;;;4999371;28;20889;-79
2022/01/28 12:33:58;;;;;;;2.60;1.30;;;10.30;60.20;;;;;;4998951;28;21007;-78
2022/01/28 12:36:26;;;;;;;2.63;1.10;;;10.90;57.40;;;;;;4997570;28;20468;-79
2022/01/28 12:39:08;;;;;;;4.80;1.10;;;10.40;57.00;;;;;;4998574;28;20485;-78
2022/01/28 12:41:43;;;;;;;2.50;1.07;;;9.90;58.30;;;;;;4997338;28;20787;-79
2022/01/28 12:44:15;;;;;;;2.40;1.00;;;9.70;58.70;;;;;;4998817;28;20480;-79
2022/01/28 12:46:46;;;;;;;2.63;0.90;;;9.40;59.20;;;;;;4998384;28;20868;-78
2022/01/28 12:49:13;;;;;;;2.50;1.10;;;9.00;59.80;;;;;;4999196;28;20433;-78
2022/01/28 12:51:41;;;;;;;2.33;0.90;;;8.80;60.70;;;;;;4994817;28;20504;-79
2022/01/28 12:54:08;;;;;;;2.40;1.07;;;8.80;61.60;;;;;;4994706;28;20458;-78
2022/01/28 12:56:36;;;;;;;2.33;0.83;;;8.80;61.80;;;;;;4994166;28;20461;-78
2022/01/28 12:59:03;;;;;;;2.97;1.33;;;8.70;61.90;;;;;;4994013;28;20485;-78
2022/01/28 13:01:32;;;;;;;2.40;1.07;;;8.80;61.90;;;;;;4994257;28;20507;-77
2022/01/28 13:04:08;;;;;;;2.80;1.10;;;8.70;62.00;;;;;;4998360;28;20473;-78
2022/01/28 13:07:00;;;;;;;2.90;0.90;;;8.50;62.40;;;;;;4997636;28;20484;-77
2022/01/28 13:09:27;;;;;;;2.27;0.97;;;8.30;62.10;;;;;;4998783;28;20468;-77
2022/01/28 13:11:57;;;;;;;2.77;1.00;;;8.30;62.90;;;;;;4998669;28;20828;-78
2022/01/28 13:14:32;;;;;;;2.60;1.10;;;8.80;63.40;;;;;;4998326;28;20496;-78
2022/01/28 13:17:01;;;;;;;3.17;0.90;;;10.90;58.60;;;;;;4999790;28;20585;-78
2022/01/28 13:19:29;;;;;;;3.33;1.13;;;13.40;54.20;;;;;;5000360;28;20477;-80
2022/01/28 13:21:56;;;;;;;2.30;0.80;;;15.20;48.60;;;;;;4999131;28;20445;-78
2022/01/28 13:24:25;;;;;;;2.87;0.97;;;14.80;47.80;;;;;;4998572;28;20477;-78
2022/01/28 13:26:57;;;;;;;2.50;1.00;;;15.60;48.00;;;;;;4998459;28;20525;-77
2022/01/28 13:29:36;;;;;;;2.40;1.00;;;17.40;45.20;;;;;;4998706;28;20455;-78
2022/01/28 13:32:07;;;;;;;2.20;0.90;;;19.50;41.70;;;;;;4998782;28;20472;-78
2022/01/28 13:34:48;;;;;;;2.40;1.00;;;19.40;41.30;;;;;;4998843;28;20477;-79
2022/01/28 13:37:39;;;;;;;2.30;0.97;;;20.70;39.90;;;;;;4998519;28;20433;-78
2022/01/28 13:40:09;;;;;;;2.80;1.30;;;21.50;37.40;;;;;;4998558;28;20500;-78
2022/01/28 13:42:36;;;;;;;2.40;0.90;;;20.60;38.50;;;;;;4998395;28;20449;-79
2022/01/28 13:45:07;;;;;;;3.90;1.40;;;18.60;40.80;;;;;;4997916;28;20477;-78
2022/01/28 13:47:53;;;;;;;2.60;1.17;;;16.60;43.40;;;;;;4998340;28;20437;-77
2022/01/28 13:50:28;;;;;;;2.60;1.03;;;14.70;47.30;;;;;;4996410;28;20433;-78
2022/01/28 13:53:08;;;;;;;2.97;1.10;;;13.10;50.70;;;;;;4993806;28;20503;-78
2022/01/28 13:55:36;;;;;;;2.43;1.17;;;12.60;52.70;;;;;;4993757;28;20469;-78
2022/01/28 13:58:05;;;;;;;2.57;1.00;;;12.60;52.30;;;;;;4993639;28;20449;-78
2022/01/28 14:00:39;;;;;;;2.73;1.33;;;11.80;53.40;;;;;;4993296;28;21066;-78
2022/01/28 14:03:15;;;;;;;4.30;1.50;;;11.20;54.80;;;;;;4993857;28;20856;-78
2022/01/28 14:05:52;;;;;;;2.70;1.40;;;10.60;56.70;;;;;;4993582;28;20886;-78
2022/01/28 14:08:40;;;;;;;2.60;1.47;;;10.30;58.00;;;;;;4994064;28;20444;-78
2022/01/28 14:11:21;;;;;;;2.67;1.23;;;10.20;58.40;;;;;;4993583;28;20429;-78
2022/01/28 14:14:23;;;;;;;2.30;1.00;;;9.70;59.20;;;;;;4993423;28;20481;-78
2022/01/28 14:16:51;;;;;;;2.60;1.10;;;9.20;60.70;;;;;;4993711;28;20438;-78
2022/01/28 14:19:19;;;;;;;2.80;1.20;;;9.00;61.20;;;;;;4996290;28;20485;-78
2022/01/28 14:21:47;;;;;;;2.67;1.40;;;8.70;62.20;;;;;;4997237;28;20507;-78
2022/01/28 14:24:16;;;;;;;3.17;1.37;;;8.40;63.40;;;;;;4997083;28;20465;-78
2022/01/28 14:26:44;;;;;;;2.90;1.50;;;8.00;64.10;;;;;;4997241;28;20505;-78
2022/01/28 14:29:23;;;;;;;2.60;1.20;;;7.90;65.00;;;;;;4997550;28;20941;-78
2022/01/28 14:31:51;;;;;;;3.23;1.53;;;7.90;65.30;;;;;;4997149;28;20492;-77
2022/01/28 14:34:20;;;;;;;2.47;1.23;;;7.80;65.50;;;;;;4996731;28;20468;-77
2022/01/28 14:36:49;;;;;;;2.63;1.47;;;7.70;65.90;;;;;;4996500;28;20441;-78
2022/01/28 14:39:15;;;;;;;4.93;1.57;;;7.80;65.90;;;;;;4996595;28;20485;-78
2022/01/28 14:41:43;;;;;;;2.77;1.27;;;7.80;65.60;;;;;;4997516;28;20457;-78
2022/01/28 14:44:09;;;;;;;2.60;1.40;;;7.90;65.40;;;;;;4996696;28;20472;-77
2022/01/28 14:46:37;;;;;;;2.47;1.27;;;7.90;65.00;;;;;;4997004;28;21013;-78
2022/01/28 14:49:05;;;;;;;3.93;1.73;;;7.90;65.10;;;;;;4996464;28;20507;-77
2022/01/28 14:51:34;;;;;;;2.33;0.90;;;8.00;64.60;;;;;;4996588;28;20449;-78
2022/01/28 14:54:01;;;;;;;2.63;1.07;;;8.40;63.80;;;;;;4996373;28;20491;-76
2022/01/28 14:56:28;;;;;;;2.50;1.00;;;8.70;63.70;;;;;;4996239;28;20457;-78
2022/01/28 14:58:57;;;;;;;2.70;1.50;;;8.90;62.00;;;;;;4995922;28;20798;-78
2022/01/28 15:01:24;;;;;;;2.70;1.13;;;9.10;61.90;;;;;;4996217;28;20451;-78
2022/01/28 15:03:51;;;;;;;2.57;1.40;;;9.10;61.50;;;;;;4995829;28;20976;-78
2022/01/28 15:06:17;;;;;;;2.50;1.20;;;9.20;61.50;;;;;;4996087;28;20802;-77
2022/01/28 15:08:45;;;;;;;2.63;1.10;;;9.10;61.20;;;;;;4996391;28;20452;-78
2022/01/28 15:11:22;;;;;;;2.60;1.23;;;9.00;61.80;;;;;;4995876;28;20452;-77
2022/01/28 15:13:49;;;;;;;3.77;1.57;;;8.90;61.70;;;;;;4995872;28;20582;-77
2022/01/28 15:16:17;;;;;;;2.50;1.33;;;8.40;62.30;;;;;;4995570;28;20438;-78
2022/01/28 15:18:43;;;;;;;2.70;1.40;;;8.30;62.80;;;;;;4996300;28;20453;-78
2022/01/28 15:21:10;;;;;;;2.27;1.03;;;8.10;63.00;;;;;;4996663;28;20491;-78
2022/01/28 15:23:40;;;;;;;2.87;1.20;;;7.50;64.60;;;;;;5000785;28;20453;-78
2022/01/28 15:26:08;;;;;;;2.90;1.30;;;7.50;65.70;;;;;;5000042;28;20852;-78
2022/01/28 15:28:47;;;;;;;2.90;1.40;;;7.40;65.50;;;;;;5000411;28;20457;-78
2022/01/28 15:36:43;;;;;;;2.47;1.30;;;7.40;65.60;;;;;;5001069;28;20405;-78
2022/01/28 15:39:10;;;;;;;2.83;1.47;;;7.60;65.70;;;;;;5001791;28;20464;-78
2022/01/28 15:41:38;;;;;;;2.83;1.30;;;7.50;65.40;;;;;;5000946;28;20456;-79
2022/01/28 15:44:05;;;;;;;3.03;1.43;;;7.40;65.80;;;;;;5002041;28;20472;-78
2022/01/28 15:46:32;;;;;;;2.77;1.53;;;7.30;66.30;;;;;;5001891;28;20457;-77
2022/01/28 15:48:59;;;;;;;2.63;1.50;;;7.20;66.50;;;;;;5001189;28;20457;-77
2022/01/28 15:51:25;;;;;;;2.90;1.43;;;7.00;67.00;;;;;;4999138;28;20891;-78
2022/01/28 15:53:52;;;;;;;2.60;1.50;;;7.10;67.20;;;;;;4999784;28;20469;-77
2022/01/28 15:56:19;;;;;;;3.20;1.57;;;7.00;67.00;;;;;;4998854;28;20457;-77
2022/01/28 15:58:47;;;;;;;2.87;1.60;;;6.90;67.30;;;;;;4999135;28;20453;-77
2022/01/28 16:01:14;;;;;;;2.97;1.70;;;6.80;67.80;;;;;;4999228;28;20492;-78
2022/01/28 16:03:40;;;;;;;3.27;1.50;;;6.80;67.90;;;;;;4999319;28;20465;-78
2022/01/28 16:06:08;;;;;;;2.90;1.53;;;6.90;67.80;;;;;;4999868;28;20457;-77
2022/01/28 16:08:36;;;;;;;3.17;1.30;;;7.00;67.70;;;;;;4999153;28;20437;-77
2022/01/28 16:11:15;;;;;;;2.90;1.73;;;6.80;67.70;;;;;;4999213;28;20461;-77
2022/01/28 16:13:54;;;;;;;2.67;1.60;;;6.80;67.60;;;;;;5000367;28;20820;-77
2022/01/28 16:19:07;;;;;;;2.77;1.80;;;6.50;68.80;;;;;;4994386;28;20478;-76
2022/01/28 16:21:33;;;;;;;3.50;1.63;;;6.30;68.90;;;;;;4993950;28;20489;-77
2022/01/28 16:24:00;;;;;;;2.70;1.60;;;6.30;69.70;;;;;;4993905;28;20438;-76
2022/01/28 16:26:27;;;;;;;2.77;1.40;;;6.30;69.60;;;;;;4993978;28;20477;-76
2022/01/28 16:28:54;;;;;;;2.60;1.37;;;6.10;69.70;;;;;;4994494;28;20445;-75
2022/01/28 16:31:22;;;;;;;2.80;1.33;;;6.30;69.90;;;;;;4994060;28;20441;-75
2022/01/28 16:33:49;;;;;;;2.70;1.47;;;6.50;69.20;;;;;;4994124;28;20449;-76
2022/01/28 16:36:16;;;;;;;3.13;1.50;;;6.60;69.10;;;;;;4994534;28;20528;-74
2022/01/28 16:38:43;;;;;;;2.97;2.10;;;6.70;68.70;;;;;;4993518;28;21055;-76
2022/01/28 16:41:12;;;;;;;3.80;2.23;;;6.80;68.50;;;;;;4994024;28;20488;-75
2022/01/28 16:43:46;;;;;;;3.47;1.70;;;6.70;68.30;;;;;;4994092;28;20945;-75
2022/01/28 16:46:13;;;;;;;2.60;1.53;;;6.70;68.50;;;;;;4993565;28;20477;-76
2022/01/28 16:48:41;;;;;;;2.50;1.40;;;6.60;68.50;;;;;;4993781;28;20444;-76
2022/01/28 16:51:08;;;;;;;3.20;1.90;;;6.70;68.60;;;;;;4993567;28;20496;-76
2022/01/28 16:53:34;;;;;;;3.10;1.80;;;6.60;68.60;;;;;;4993409;28;20453;-76
2022/01/28 16:56:01;;;;;;;3.43;1.90;;;6.50;69.00;;;;;;4993165;28;20485;-75
2022/01/28 16:58:28;;;;;;;2.87;1.60;;;6.50;68.80;;;;;;4993467;28;20556;-76
2022/01/28 17:00:54;;;;;;;3.07;1.90;;;6.40;68.90;;;;;;4993485;28;20488;-75
2022/01/28 17:03:21;;;;;;;3.37;2.03;;;6.40;69.00;;;;;;4993464;28;20441;-76
2022/01/28 17:05:49;;;;;;;2.70;1.53;;;6.40;69.30;;;;;;4993584;28;20580;-75
2022/01/28 17:08:16;;;;;;;3.17;1.60;;;6.40;69.30;;;;;;4993623;28;20508;-76
2022/01/28 17:10:45;;;;;;;2.80;1.50;;;6.40;69.60;;;;;;4993658;28;20449;-76
2022/01/28 17:13:13;;;;;;;3.37;1.40;;;6.60;69.10;;;;;;4993778;28;20860;-76
2022/01/28 17:15:42;;;;;;;2.97;1.63;;;6.50;69.20;;;;;;4993286;28;20485;-76
2022/01/28 17:18:09;;;;;;;6.10;1.80;;;6.40;69.30;;;;;;4994003;28;20511;-76
2022/01/28 17:20:38;;;;;;;3.30;1.83;;;6.40;69.50;;;;;;4993243;28;20540;-76
2022/01/28 17:23:07;;;;;;;3.00;1.63;;;6.50;69.20;;;;;;4995756;28;20448;-76
2022/01/28 17:25:34;;;;;;;3.73;2.17;;;6.50;69.00;;;;;;5011351;28;20446;-75
2022/01/28 17:28:01;;;;;;;4.60;2.03;;;6.40;69.30;;;;;;5017325;28;20437;-76
2022/01/28 17:30:29;;;;;;;2.70;1.70;;;6.50;69.60;;;;;;4997525;28;20807;-77
2022/01/28 17:32:56;;;;;;;2.80;1.40;;;6.40;69.60;;;;;;4996518;28;20453;-76
2022/01/28 17:35:23;;;;;;;3.20;1.93;;;6.50;69.50;;;;;;4995545;28;20473;-76
2022/01/28 17:37:50;;;;;;;2.90;1.80;;;6.50;69.10;;;;;;4994423;28;20952;-77
2022/01/28 17:40:18;;;;;;;3.30;1.80;;;6.50;69.10;;;;;;4995429;28;20484;-76
2022/01/28 17:42:45;;;;;;;3.60;2.03;;;6.60;69.10;;;;;;4995807;28;20453;-76